createdAt,value
2022-09-15T00:00:27.322Z,15.40
2022-09-15T00:02:54.033Z,15.36
2022-09-15T00:05:20.638Z,15.35
2022-09-15T00:07:47.249Z,15.24
2022-09-15T00:10:13.976Z,15.29
2022-09-15T00:12:40.567Z,15.35
2022-09-15T00:15:07.755Z,15.30
2022-09-15T00:17:34.273Z,15.24
2022-09-15T00:20:00.841Z,15.26
2022-09-15T00:22:28.112Z,15.30
2022-09-15T00:24:54.620Z,15.23
2022-09-15T00:27:21.216Z,15.19
2022-09-15T00:29:47.686Z,15.18
2022-09-15T00:32:14.183Z,15.17
2022-09-15T00:34:40.632Z,15.17
2022-09-15T00:37:07.188Z,15.20
2022-09-15T00:39:33.904Z,15.13
2022-09-15T00:42:00.340Z,15.01
2022-09-15T00:44:35.837Z,15.10
2022-09-15T00:47:18.643Z,15.20
2022-09-15T00:49:49.150Z,15.23
2022-09-15T00:52:23.488Z,15.25
2022-09-15T00:54:53.920Z,15.19
2022-09-15T00:57:25.816Z,15.21
2022-09-15T00:59:55.459Z,15.24
2022-09-15T01:02:28.093Z,15.20
2022-09-15T01:04:58.523Z,15.15
2022-09-15T01:07:49.868Z,15.19
2022-09-15T01:10:24.492Z,15.24
2022-09-15T01:12:52.328Z,15.23
2022-09-15T01:15:20.949Z,15.15
2022-09-15T01:18:23.778Z,15.07
2022-09-15T01:20:56.379Z,14.66
2022-09-15T01:23:44.894Z,14.68
2022-09-15T01:26:42.348Z,14.53
2022-09-15T01:29:27.500Z,14.56
2022-09-15T01:32:43.318Z,14.46
2022-09-15T01:35:15.412Z,14.27
2022-09-15T01:37:53.456Z,14.27
2022-09-15T01:40:23.202Z,14.14
2022-09-15T01:42:52.665Z,14.14
2022-09-15T01:45:23.638Z,14.12
2022-09-15T01:47:54.164Z,14.15
2022-09-15T01:50:25.442Z,14.15
2022-09-15T01:52:57.013Z,14.27
2022-09-15T01:55:32.338Z,14.29
2022-09-15T01:57:59.577Z,14.30
2022-09-15T02:00:26.059Z,14.18
2022-09-15T02:02:58.662Z,14.20
2022-09-15T02:06:01.885Z,14.14
2022-09-15T02:08:38.358Z,14.10
2022-09-15T02:11:19.985Z,13.94
2022-09-15T02:13:57.606Z,13.88
2022-09-15T02:16:27.999Z,14.01
2022-09-15T02:19:19.683Z,14.10
2022-09-15T02:22:15.077Z,14.12
2022-09-15T02:24:50.095Z,14.21
2022-09-15T02:27:22.984Z,14.26
2022-09-15T02:29:51.868Z,14.09
2022-09-15T02:32:23.286Z,14.09
2022-09-15T02:34:54.467Z,14.27
2022-09-15T02:37:22.966Z,14.35
2022-09-15T02:39:57.823Z,14.42
2022-09-15T02:42:26.185Z,14.50
2022-09-15T02:44:53.580Z,14.54
2022-09-15T02:47:20.696Z,14.58
2022-09-15T02:49:47.148Z,14.59
2022-09-15T02:52:13.756Z,14.61
2022-09-15T02:54:40.311Z,14.53
2022-09-15T02:57:06.921Z,14.56
2022-09-15T02:59:52.320Z,14.48
2022-09-15T03:02:20.560Z,14.41
2022-09-15T03:04:48.104Z,14.48
2022-09-15T03:07:15.004Z,14.49
2022-09-15T03:09:41.922Z,14.54
2022-09-15T03:12:08.929Z,14.52
2022-09-15T03:14:35.488Z,14.52
2022-09-15T03:17:02.932Z,14.49
2022-09-15T03:19:29.451Z,14.40
2022-09-15T03:21:55.881Z,14.18
2022-09-15T03:24:23.050Z,14.10
2022-09-15T03:26:49.593Z,14.18
2022-09-15T03:29:16.333Z,14.17
2022-09-15T03:31:42.973Z,14.21
2022-09-15T03:34:09.551Z,14.30
2022-09-15T03:36:35.993Z,14.31
2022-09-15T03:39:02.724Z,14.38
2022-09-15T03:41:29.362Z,14.48
2022-09-15T03:43:56.605Z,14.52
2022-09-15T03:46:23.176Z,14.60
2022-09-15T03:48:49.624Z,14.55
2022-09-15T03:51:16.194Z,14.51
2022-09-15T03:53:42.789Z,14.55
2022-09-15T03:56:10.940Z,14.53
2022-09-15T03:58:37.450Z,14.59
2022-09-15T04:01:04.491Z,14.59
2022-09-15T04:03:31.630Z,14.64
2022-09-15T04:05:58.340Z,14.71
2022-09-15T04:08:24.845Z,14.75
2022-09-15T04:10:51.278Z,14.78
2022-09-15T04:13:17.752Z,14.81
2022-09-15T04:15:44.599Z,14.85
2022-09-15T04:18:11.063Z,14.87
2022-09-15T04:20:41.418Z,14.88
2022-09-15T04:23:07.854Z,14.89
2022-09-15T04:25:34.309Z,14.93
2022-09-15T04:28:00.958Z,14.97
2022-09-15T04:30:27.497Z,14.95
2022-09-15T04:32:53.999Z,14.92
2022-09-15T04:35:21.872Z,14.96
2022-09-15T04:37:48.372Z,15.01
2022-09-15T04:40:14.937Z,15.05
2022-09-15T04:42:41.437Z,15.07
2022-09-15T04:45:08.407Z,14.97
2022-09-15T04:47:34.880Z,14.98
2022-09-15T04:50:01.563Z,15.03
2022-09-15T04:52:28.059Z,15.08
2022-09-15T04:54:54.576Z,15.07
2022-09-15T04:57:21.046Z,15.08
2022-09-15T04:59:47.513Z,14.99
2022-09-15T05:02:14.034Z,14.97
2022-09-15T05:04:40.490Z,14.91
2022-09-15T05:07:06.964Z,14.80
2022-09-15T05:09:33.435Z,14.83
2022-09-15T05:11:59.939Z,14.90
2022-09-15T05:14:26.485Z,14.75
2022-09-15T05:16:52.970Z,14.55
2022-09-15T05:19:19.694Z,14.55
2022-09-15T05:21:46.215Z,14.69
2022-09-15T05:24:12.800Z,14.73
2022-09-15T05:26:39.567Z,14.61
2022-09-15T05:29:06.077Z,14.63
2022-09-15T05:31:36.466Z,14.62
2022-09-15T05:34:05.527Z,14.64
2022-09-15T05:36:32.639Z,14.70
2022-09-15T05:39:00.173Z,14.69
2022-09-15T05:41:28.551Z,14.67
2022-09-15T05:43:59.609Z,14.68
2022-09-15T05:46:27.364Z,14.75
2022-09-15T05:48:56.357Z,14.81
2022-09-15T05:51:23.107Z,14.88
2022-09-15T05:53:49.672Z,14.82
2022-09-15T05:56:17.418Z,14.74
2022-09-15T05:58:46.486Z,14.81
2022-09-15T06:01:16.317Z,14.92
2022-09-15T06:03:43.447Z,14.77
2022-09-15T06:06:10.466Z,14.77
2022-09-15T06:08:43.908Z,14.82
2022-09-15T06:11:17.341Z,14.93
2022-09-15T06:13:46.472Z,14.91
2022-09-15T06:16:15.883Z,14.86
2022-09-15T06:18:42.490Z,14.81
2022-09-15T06:21:12.373Z,14.78
2022-09-15T06:23:39.473Z,14.79
2022-09-15T06:26:09.389Z,14.79
2022-09-15T06:28:36.020Z,14.87
2022-09-15T06:31:03.016Z,14.97
2022-09-15T06:33:29.994Z,15.02
2022-09-15T06:35:56.539Z,15.01
2022-09-15T06:38:22.995Z,14.99
2022-09-15T06:40:57.078Z,15.09
2022-09-15T06:43:24.313Z,15.18
2022-09-15T06:45:50.996Z,15.24
2022-09-15T06:48:24.563Z,15.39
2022-09-15T06:50:55.446Z,15.42
2022-09-15T06:53:22.191Z,15.39
2022-09-15T06:55:48.741Z,15.36
2022-09-15T06:58:15.453Z,15.45
2022-09-15T07:00:42.962Z,15.51
2022-09-15T07:03:09.587Z,15.43
2022-09-15T07:05:36.261Z,15.31
2022-09-15T07:08:03.021Z,15.46
2022-09-15T07:10:29.510Z,15.53
2022-09-15T07:12:56.017Z,15.44
2022-09-15T07:15:24.838Z,15.56
2022-09-15T07:17:51.316Z,15.54
2022-09-15T07:20:17.814Z,15.52
2022-09-15T07:22:44.296Z,15.38
2022-09-15T07:25:10.810Z,15.33
2022-09-15T07:27:37.349Z,15.30
2022-09-15T07:30:08.422Z,15.41
2022-09-15T07:32:35.116Z,15.37
2022-09-15T07:35:02.277Z,15.34
2022-09-15T07:37:28.864Z,15.45
2022-09-15T07:39:55.399Z,15.46
2022-09-15T07:42:21.921Z,15.45
2022-09-15T07:44:48.374Z,15.50
2022-09-15T07:47:14.837Z,15.67
2022-09-15T07:49:42.109Z,15.63
2022-09-15T07:52:08.713Z,15.80
2022-09-15T07:54:35.183Z,15.93
2022-09-15T07:57:01.916Z,15.82
2022-09-15T07:59:28.508Z,15.82
2022-09-15T08:01:55.163Z,15.90
2022-09-15T08:04:21.676Z,15.95
2022-09-15T08:06:48.135Z,16.16
2022-09-15T08:09:17.308Z,16.24
2022-09-15T08:11:44.074Z,16.18
2022-09-15T08:14:10.918Z,16.26
2022-09-15T08:16:38.481Z,16.43
2022-09-15T08:19:05.329Z,16.40
2022-09-15T08:21:31.867Z,16.49
2022-09-15T08:23:59.729Z,16.56
2022-09-15T08:26:28.404Z,16.49
2022-09-15T08:28:54.933Z,16.55
2022-09-15T08:31:23.947Z,16.62
2022-09-15T08:33:53.181Z,16.61
2022-09-15T08:36:20.008Z,16.66
2022-09-15T08:38:47.402Z,16.69
2022-09-15T08:41:28.905Z,16.79
2022-09-15T08:44:29.381Z,16.90
2022-09-15T08:47:16.731Z,17.03
2022-09-15T08:49:51.873Z,17.04
2022-09-15T08:52:21.355Z,17.00
2022-09-15T08:54:50.851Z,17.06
2022-09-15T08:57:22.272Z,17.05
2022-09-15T08:59:48.857Z,17.22
2022-09-15T09:03:03.191Z,17.27
2022-09-15T09:05:45.558Z,17.18
2022-09-15T09:08:30.797Z,17.36
2022-09-15T09:11:06.174Z,17.40
2022-09-15T09:13:51.327Z,17.55
2022-09-15T09:17:07.821Z,17.32
2022-09-15T09:20:12.666Z,17.39
2022-09-15T09:22:42.861Z,17.48
2022-09-15T09:25:26.689Z,17.53
2022-09-15T09:27:56.312Z,17.63
2022-09-15T09:30:25.007Z,17.60
2022-09-15T09:33:30.133Z,17.71
2022-09-15T09:35:59.731Z,17.69
2022-09-15T09:38:34.948Z,17.71
2022-09-15T09:41:04.897Z,17.67
2022-09-15T09:43:32.333Z,17.72
2022-09-15T09:45:59.736Z,17.80
2022-09-15T09:48:28.640Z,17.70
2022-09-15T09:50:55.706Z,17.71
2022-09-15T09:53:30.988Z,17.67
2022-09-15T09:56:17.106Z,17.70
2022-09-15T09:58:44.743Z,17.75
2022-09-15T10:01:18.966Z,17.86
2022-09-15T10:03:46.380Z,17.80
2022-09-15T10:06:14.530Z,17.80
2022-09-15T10:08:59.321Z,17.86
2022-09-15T10:11:47.683Z,17.83
2022-09-15T10:14:21.837Z,17.87
2022-09-15T10:17:08.909Z,17.92
2022-09-15T10:19:50.776Z,17.95
2022-09-15T10:22:35.739Z,17.94
2022-09-15T10:25:23.698Z,17.84
2022-09-15T10:28:16.818Z,17.85
2022-09-15T10:31:02.234Z,17.79
2022-09-15T10:33:47.578Z,17.86
2022-09-15T10:36:17.433Z,17.90
2022-09-15T10:38:46.771Z,17.83
2022-09-15T10:41:32.671Z,17.80
2022-09-15T10:44:19.351Z,17.80
2022-09-15T10:47:01.063Z,17.80
2022-09-15T10:49:56.937Z,17.87
2022-09-15T10:52:39.308Z,17.82
2022-09-15T10:55:51.234Z,17.93
2022-09-15T10:58:47.748Z,17.80
2022-09-15T11:01:32.282Z,17.82
2022-09-15T11:04:21.566Z,17.90
2022-09-15T11:07:26.197Z,17.98
2022-09-15T11:10:17.023Z,18.02
2022-09-15T11:12:46.455Z,18.09
2022-09-15T11:15:19.057Z,18.05
2022-09-15T11:18:01.985Z,18.14
2022-09-15T11:20:28.363Z,18.23
2022-09-15T11:23:04.606Z,18.31
2022-09-15T11:25:42.348Z,18.31
2022-09-15T11:28:24.590Z,18.24
2022-09-15T11:30:58.582Z,18.23
2022-09-15T11:33:43.938Z,18.26
2022-09-15T11:36:17.792Z,18.20
2022-09-15T11:38:54.639Z,18.18
2022-09-15T11:41:34.164Z,18.17
2022-09-15T11:44:16.814Z,18.14
2022-09-15T11:47:05.237Z,18.08
2022-09-15T11:49:40.625Z,18.11
2022-09-15T11:52:22.563Z,18.12
2022-09-15T11:54:57.422Z,18.12
2022-09-15T11:57:36.501Z,18.19
2022-09-15T12:00:03.323Z,18.12
2022-09-15T12:02:51.638Z,18.10
2022-09-15T12:05:24.016Z,18.15
2022-09-15T12:07:59.397Z,18.24
2022-09-15T12:10:31.796Z,18.19
2022-09-15T12:13:00.484Z,18.25
2022-09-15T12:15:27.290Z,18.20
2022-09-15T12:18:34.348Z,18.20
2022-09-15T12:21:22.730Z,18.17
2022-09-15T12:24:12.283Z,18.08
2022-09-15T12:26:39.608Z,18.05
2022-09-15T12:29:21.468Z,18.06
2022-09-15T12:31:47.972Z,17.99
2022-09-15T12:34:38.431Z,17.97
2022-09-15T12:37:13.645Z,17.89
2022-09-15T12:39:44.391Z,17.75
2022-09-15T12:42:10.831Z,17.43
2022-09-15T12:44:43.293Z,17.11
2022-09-15T12:47:25.484Z,16.97
2022-09-15T12:49:56.315Z,16.86
2022-09-15T12:52:25.255Z,16.85
2022-09-15T12:55:02.064Z,16.96
2022-09-15T12:57:36.226Z,17.06
2022-09-15T13:00:20.935Z,17.10
2022-09-15T13:02:49.375Z,17.17
2022-09-15T13:05:41.680Z,17.22
2022-09-15T13:08:33.357Z,16.96
2022-09-15T13:11:04.549Z,16.74
2022-09-15T13:13:43.753Z,16.63
2022-09-15T13:16:51.665Z,16.55
2022-09-15T13:19:33.041Z,16.30
2022-09-15T13:22:11.642Z,16.38
2022-09-15T13:25:01.799Z,16.44
2022-09-15T13:27:36.304Z,16.47
2022-09-15T13:30:10.006Z,16.48
2022-09-15T13:33:12.091Z,16.69
2022-09-15T13:35:48.729Z,16.66
2022-09-15T13:38:31.682Z,16.71
2022-09-15T13:41:18.252Z,16.77
2022-09-15T13:44:10.070Z,16.76
2022-09-15T13:47:12.155Z,16.82
2022-09-15T13:50:04.794Z,16.87
2022-09-15T13:52:37.249Z,16.91
2022-09-15T13:55:27.984Z,16.91
2022-09-15T14:01:02.155Z,16.95
2022-09-15T14:03:51.627Z,16.95
2022-09-15T14:06:23.171Z,17.05
2022-09-15T14:08:57.246Z,17.07
2022-09-15T14:11:28.680Z,17.00
2022-09-15T14:13:56.653Z,16.96
2022-09-15T14:16:30.661Z,17.02
2022-09-15T14:18:59.977Z,16.89
2022-09-15T14:21:29.751Z,16.85
2022-09-15T14:23:59.708Z,16.86
2022-09-15T14:26:32.945Z,16.87
2022-09-15T14:29:02.416Z,16.89
2022-09-15T14:31:30.553Z,16.88
2022-09-15T14:33:57.594Z,16.85
2022-09-15T14:36:32.558Z,16.83
2022-09-15T14:39:22.097Z,16.86
2022-09-15T14:41:50.276Z,16.94
2022-09-15T14:47:21.732Z,16.87
2022-09-15T14:49:48.730Z,16.88
2022-09-15T14:52:29.033Z,16.91
2022-09-15T14:55:03.168Z,16.86
2022-09-15T14:57:33.744Z,16.88
2022-09-15T15:00:07.371Z,16.89
2022-09-15T15:03:14.770Z,16.88
2022-09-15T15:06:02.767Z,16.90
2022-09-15T15:08:46.491Z,16.95
2022-09-15T15:11:15.966Z,16.91
2022-09-15T15:13:48.313Z,16.81
2022-09-15T15:16:26.582Z,16.84
2022-09-15T15:18:56.115Z,16.90
2022-09-15T15:21:37.605Z,16.92
2022-09-15T15:24:13.020Z,16.88
2022-09-15T15:26:42.180Z,16.85
2022-09-15T15:29:44.485Z,16.90
2022-09-15T15:32:16.323Z,16.88
2022-09-15T15:34:55.707Z,16.92
2022-09-15T15:37:29.590Z,16.93
2022-09-15T15:39:58.581Z,16.95
2022-09-15T15:42:27.708Z,16.99
2022-09-15T15:45:00.297Z,16.97
2022-09-15T15:47:30.761Z,16.98
2022-09-15T15:50:13.686Z,17.06
2022-09-15T15:52:41.641Z,17.06
2022-09-15T15:55:08.436Z,17.11
2022-09-15T15:57:38.990Z,17.12
2022-09-15T16:00:32.697Z,17.17
2022-09-15T16:02:59.298Z,17.13
2022-09-15T16:05:27.575Z,17.13
2022-09-15T16:07:56.509Z,17.18
2022-09-15T16:10:27.944Z,17.20
2022-09-15T16:12:54.425Z,17.23
2022-09-15T16:15:21.600Z,17.27
2022-09-15T16:17:48.946Z,17.29
2022-09-15T16:20:16.571Z,17.29
2022-09-15T16:22:43.466Z,17.29
2022-09-15T16:25:14.684Z,17.40
2022-09-15T16:27:41.303Z,17.47
2022-09-15T16:30:11.982Z,17.59
2022-09-15T16:32:41.935Z,17.56
2022-09-15T16:35:33.617Z,17.51
2022-09-15T16:38:00.131Z,17.37
2022-09-15T16:40:26.780Z,17.26
2022-09-15T16:42:53.543Z,17.23
2022-09-15T16:45:36.681Z,17.24
2022-09-15T16:48:06.527Z,17.26
2022-09-15T16:50:33.156Z,17.25
2022-09-15T16:52:59.613Z,17.22
2022-09-15T16:55:38.932Z,17.26
2022-09-15T16:58:06.548Z,17.31
2022-09-15T17:00:36.144Z,17.26
2022-09-15T17:03:07.342Z,17.39
2022-09-15T17:05:48.290Z,17.43
2022-09-15T17:08:16.132Z,17.57
2022-09-15T17:10:43.165Z,17.47
2022-09-15T17:13:14.267Z,17.56
2022-09-15T17:15:41.525Z,17.48
2022-09-15T17:18:08.852Z,17.31
2022-09-15T17:20:39.142Z,17.38
2022-09-15T17:23:25.274Z,17.32
2022-09-15T17:25:53.720Z,17.22
2022-09-15T17:28:22.594Z,17.22
2022-09-15T17:30:51.866Z,17.31
2022-09-15T17:33:20.176Z,17.13
2022-09-15T17:35:47.488Z,17.14
2022-09-15T17:38:14.254Z,17.04
2022-09-15T17:40:41.216Z,17.02
2022-09-15T17:43:14.091Z,16.96
2022-09-15T17:45:40.726Z,16.92
2022-09-15T17:48:07.611Z,16.91
2022-09-15T17:50:35.006Z,16.92
2022-09-15T17:53:01.500Z,16.87
2022-09-15T17:55:33.102Z,16.99
2022-09-15T17:58:02.409Z,16.99
2022-09-15T18:00:31.928Z,16.90
2022-09-15T18:03:00.502Z,17.00
2022-09-15T18:05:31.380Z,17.03
2022-09-15T18:08:03.404Z,17.14
2022-09-15T18:10:32.093Z,17.03
2022-09-15T18:12:58.979Z,16.95
2022-09-15T18:15:29.719Z,16.91
2022-09-15T18:17:58.529Z,17.06
2022-09-15T18:20:27.694Z,17.03
2022-09-15T18:22:55.289Z,16.96
2022-09-15T18:25:28.237Z,16.90
2022-09-15T18:27:55.173Z,16.94
2022-09-15T18:30:23.594Z,16.81
2022-09-15T18:32:50.421Z,16.76
2022-09-15T18:35:19.373Z,16.75
2022-09-15T18:37:54.518Z,16.80
2022-09-15T18:40:21.200Z,16.71
2022-09-15T18:42:47.667Z,16.73
2022-09-15T18:45:17.043Z,16.72
2022-09-15T18:47:47.217Z,16.67
2022-09-15T18:50:14.133Z,16.78
2022-09-15T18:52:41.549Z,16.70
2022-09-15T18:55:15.801Z,16.71
2022-09-15T18:57:42.832Z,16.68
2022-09-15T19:00:15.943Z,16.64
2022-09-15T19:02:42.794Z,16.61
2022-09-15T19:05:15.319Z,16.52
2022-09-15T19:07:45.784Z,16.53
2022-09-15T19:10:16.096Z,16.64
2022-09-15T19:12:43.199Z,16.63
2022-09-15T19:15:11.554Z,16.48
2022-09-15T19:17:39.458Z,16.50
2022-09-15T19:20:08.709Z,16.58
2022-09-15T19:22:36.679Z,16.46
2022-09-15T19:25:04.134Z,16.34
2022-09-15T19:27:30.654Z,16.35
2022-09-15T19:29:57.227Z,16.31
2022-09-15T19:32:23.980Z,16.27
2022-09-15T19:34:50.446Z,16.24
2022-09-15T19:37:19.748Z,16.16
2022-09-15T19:39:47.668Z,16.18
2022-09-15T19:44:43.580Z,16.13
2022-09-15T19:47:10.518Z,16.12
2022-09-15T19:49:37.247Z,15.98
2022-09-15T19:52:06.165Z,15.90
2022-09-15T19:54:34.334Z,15.85
2022-09-15T19:57:01.153Z,15.84
2022-09-15T19:59:31.360Z,15.74
2022-09-15T20:01:59.539Z,15.71
2022-09-15T20:04:26.795Z,15.66
2022-09-15T20:06:53.455Z,15.64
2022-09-15T20:09:20.036Z,15.68
2022-09-15T20:11:46.635Z,15.65
2022-09-15T20:14:13.961Z,15.70
2022-09-15T20:16:41.251Z,15.70
2022-09-15T20:19:07.848Z,15.67
2022-09-15T20:21:52.013Z,15.64
2022-09-15T20:24:20.905Z,15.68
2022-09-15T20:26:48.081Z,15.61
2022-09-15T20:29:14.830Z,15.65
2022-09-15T20:31:41.576Z,15.69
2022-09-15T20:34:08.222Z,15.71
2022-09-15T20:36:38.324Z,15.70
2022-09-15T20:39:08.748Z,15.61
2022-09-15T20:41:35.451Z,15.54
2022-09-15T20:44:02.176Z,15.45
2022-09-15T20:46:31.671Z,15.45
2022-09-15T20:48:58.217Z,15.40
2022-09-15T20:51:27.854Z,15.40
2022-09-15T20:53:56.665Z,15.35
2022-09-15T20:56:25.502Z,15.38
2022-09-15T20:58:54.161Z,15.27
2022-09-15T21:01:39.796Z,15.21
2022-09-15T21:04:08.368Z,15.21
2022-09-15T21:06:35.063Z,15.18
2022-09-15T21:09:02.372Z,15.21
2022-09-15T21:11:29.996Z,15.18
2022-09-15T21:13:57.321Z,15.15
2022-09-15T21:16:26.897Z,14.99
2022-09-15T21:18:54.041Z,14.98
2022-09-15T21:21:29.913Z,15.06
2022-09-15T21:24:00.234Z,14.97
2022-09-15T21:26:29.138Z,14.95
2022-09-15T21:28:56.185Z,15.12
2022-09-15T21:31:31.967Z,15.21
2022-09-15T21:33:59.316Z,15.12
2022-09-15T21:36:28.264Z,15.10
2022-09-15T21:38:56.801Z,15.08
2022-09-15T21:41:26.353Z,15.13
2022-09-15T21:43:54.858Z,15.07
2022-09-15T21:46:28.180Z,15.00
2022-09-15T21:48:56.520Z,14.97
2022-09-15T21:51:25.246Z,14.95
2022-09-15T21:53:57.708Z,15.00
2022-09-15T21:56:25.593Z,14.98
2022-09-15T21:58:52.079Z,15.05
2022-09-15T22:01:25.782Z,15.12
2022-09-15T22:03:55.677Z,15.14
2022-09-15T22:06:30.195Z,15.14
2022-09-15T22:08:58.108Z,15.05
2022-09-15T22:11:24.961Z,15.05
2022-09-15T22:13:51.593Z,15.05
2022-09-15T22:16:21.004Z,15.13
2022-09-15T22:18:47.928Z,15.09
2022-09-15T22:21:23.353Z,15.03
2022-09-15T22:23:51.720Z,14.83
2022-09-15T22:26:20.640Z,14.94
2022-09-15T22:28:47.872Z,14.85
2022-09-15T22:31:16.871Z,14.83
2022-09-15T22:33:43.468Z,14.87
2022-09-15T22:36:14.090Z,14.90
2022-09-15T22:38:40.919Z,14.91
2022-09-15T22:41:11.905Z,14.82
2022-09-15T22:43:40.024Z,14.80
2022-09-15T22:46:07.342Z,14.80
2022-09-15T22:48:34.162Z,14.88
2022-09-15T22:51:00.843Z,14.85
2022-09-15T22:53:27.625Z,14.91
2022-09-15T22:56:05.736Z,14.88
2022-09-15T22:58:33.678Z,14.85
2022-09-15T23:01:09.570Z,14.82
2022-09-15T23:03:37.166Z,14.77
2022-09-15T23:06:05.365Z,14.73
2022-09-15T23:08:32.527Z,14.75
2022-09-15T23:11:10.504Z,14.64
2022-09-15T23:13:38.294Z,14.48
2022-09-15T23:16:05.860Z,14.60
2022-09-15T23:18:34.618Z,14.48
2022-09-15T23:21:07.378Z,14.47
2022-09-15T23:23:39.036Z,14.56
2022-09-15T23:26:07.580Z,14.55
2022-09-15T23:28:34.474Z,14.54
2022-09-15T23:31:01.096Z,14.46
2022-09-15T23:33:29.033Z,14.43
2022-09-15T23:35:58.051Z,14.50
2022-09-15T23:38:24.527Z,14.51
2022-09-15T23:40:51.141Z,14.55
2022-09-15T23:43:17.971Z,14.60
2022-09-15T23:45:45.194Z,14.60
2022-09-15T23:48:13.238Z,14.64
2022-09-15T23:50:40.568Z,14.48
2022-09-15T23:53:07.884Z,14.46
2022-09-15T23:55:34.727Z,14.43
2022-09-15T23:58:01.688Z,14.35
